Time;durP1;ratioP1;P1;durP2;ratioP2;P2;SDS_P1;SDS_P2;PMS_P1;PMS_P2;Temp;Humidity;BMP_temperature;BMP_pressure;BME280_temperature;BME280_humidity;BME280_pressure;Samples;Min_cycle;Max_cycle;Signal;HPM_P1;HPM_P2
2021/08/27 00:00:19;;;;;;;;;;;24.20;58.20;;;;;;495456;240;1529;-43
2021/08/27 00:02:20;;;;;;;;;;;24.20;58.20;;;;;;495094;240;1388;-43
2021/08/27 00:04:22;;;;;;;;;;;24.20;58.20;;;;;;495051;240;2193;-43
2021/08/27 00:06:23;;;;;;;;;;;24.20;58.20;;;;;;495106;240;1205;-43
2021/08/27 00:08:24;;;;;;;;;;;24.20;58.10;;;;;;495507;240;1073;-43
2021/08/27 00:10:26;;;;;;;;;;;24.20;58.10;;;;;;495145;240;1521;-43
2021/08/27 00:12:27;;;;;;;;;;;24.20;58.10;;;;;;495022;240;1209;-43
2021/08/27 00:14:28;;;;;;;;;;;24.20;58.10;;;;;;495440;240;1060;-43
2021/08/27 00:16:30;;;;;;;;;;;24.20;58.10;;;;;;495240;240;1208;-43
2021/08/27 00:18:31;;;;;;;;;;;24.20;58.10;;;;;;495042;240;1061;-43
2021/08/27 00:20:32;;;;;;;;;;;24.20;58.00;;;;;;495313;240;1145;-43
2021/08/27 00:22:34;;;;;;;;;;;24.20;58.10;;;;;;495143;240;1178;-43
2021/08/27 00:24:35;;;;;;;;;;;24.20;58.10;;;;;;495513;240;2123;-43
2021/08/27 00:26:36;;;;;;;;;;;24.20;58.10;;;;;;494993;240;1499;-43
2021/08/27 00:28:37;;;;;;;;;;;24.30;58.10;;;;;;495484;240;1203;-43
2021/08/27 00:30:39;;;;;;;;;;;24.20;58.10;;;;;;495476;240;1024;-43
2021/08/27 00:32:40;;;;;;;;;;;24.20;58.10;;;;;;495195;240;1413;-43
2021/08/27 00:34:41;;;;;;;;;;;24.20;58.10;;;;;;495300;240;1034;-43
2021/08/27 00:36:43;;;;;;;;;;;24.20;58.10;;;;;;495319;240;1675;-43
2021/08/27 00:38:44;;;;;;;;;;;24.20;58.10;;;;;;495331;240;1017;-43
2021/08/27 00:40:45;;;;;;;;;;;24.30;58.10;;;;;;495546;240;1440;-43
2021/08/27 00:42:47;;;;;;;;;;;24.20;58.10;;;;;;495121;240;1303;-43
2021/08/27 00:44:48;;;;;;;;;;;24.20;58.10;;;;;;495537;240;2198;-43
2021/08/27 00:46:49;;;;;;;;;;;24.20;58.10;;;;;;495110;240;1194;-43
2021/08/27 00:48:51;;;;;;;;;;;24.30;58.10;;;;;;495200;240;1196;-43
2021/08/27 00:50:52;;;;;;;;;;;24.30;58.10;;;;;;495295;240;1174;-43
2021/08/27 00:52:53;;;;;;;;;;;24.30;58.10;;;;;;495047;240;1264;-43
2021/08/27 00:54:55;;;;;;;;;;;24.30;58.10;;;;;;495603;240;1032;-43
2021/08/27 00:56:56;;;;;;;;;;;24.30;58.00;;;;;;495055;240;1508;-43
2021/08/27 00:58:57;;;;;;;;;;;24.30;58.10;;;;;;495190;240;1041;-43
2021/08/27 01:00:59;;;;;;;;;;;24.30;58.00;;;;;;495395;240;1091;-43
2021/08/27 01:03:01;;;;;;;;;;;24.30;58.10;;;;;;495244;240;1215;-43
2021/08/27 01:05:01;;;;;;;;;;;24.30;58.10;;;;;;494989;241;2186;-43
2021/08/27 01:07:03;;;;;;;;;;;24.30;58.10;;;;;;495496;240;1256;-43
2021/08/27 01:09:04;;;;;;;;;;;24.30;58.00;;;;;;495282;240;1092;-43
2021/08/27 01:11:05;;;;;;;;;;;24.30;58.10;;;;;;495059;240;1373;-43
2021/08/27 01:13:07;;;;;;;;;;;24.30;58.00;;;;;;495282;240;1209;-43
2021/08/27 01:15:08;;;;;;;;;;;24.30;58.00;;;;;;495557;240;1059;-43
2021/08/27 01:17:09;;;;;;;;;;;24.30;58.00;;;;;;495130;240;1207;-43
2021/08/27 01:19:10;;;;;;;;;;;24.30;58.00;;;;;;495231;240;1188;-43
2021/08/27 01:21:12;;;;;;;;;;;24.30;58.00;;;;;;494979;240;1721;-43
2021/08/27 01:23:13;;;;;;;;;;;24.30;58.00;;;;;;495502;240;1275;-43
2021/08/27 01:25:15;;;;;;;;;;;24.30;58.00;;;;;;495025;240;2181;-43
2021/08/27 01:27:16;;;;;;;;;;;24.30;58.00;;;;;;495475;240;2139;-43
2021/08/27 01:29:17;;;;;;;;;;;24.30;58.00;;;;;;495514;240;1037;-43
2021/08/27 01:31:19;;;;;;;;;;;24.30;58.00;;;;;;495274;239;1224;-43
2021/08/27 01:33:20;;;;;;;;;;;24.30;57.90;;;;;;495284;240;1612;-43
2021/08/27 01:35:21;;;;;;;;;;;24.30;57.90;;;;;;495532;240;1070;-43
2021/08/27 01:37:22;;;;;;;;;;;24.30;58.00;;;;;;495053;240;1251;-43
2021/08/27 01:39:24;;;;;;;;;;;24.30;58.00;;;;;;495501;240;1145;-43
2021/08/27 01:41:25;;;;;;;;;;;24.30;58.00;;;;;;495419;240;1151;-43
2021/08/27 01:43:26;;;;;;;;;;;24.30;58.00;;;;;;495113;240;1064;-43
2021/08/27 01:45:28;;;;;;;;;;;24.30;58.00;;;;;;495516;240;2174;-43
2021/08/27 01:47:29;;;;;;;;;;;24.30;57.90;;;;;;495156;240;1526;-43
2021/08/27 01:49:30;;;;;;;;;;;24.30;57.90;;;;;;495416;240;2340;-43
2021/08/27 01:51:32;;;;;;;;;;;24.30;57.90;;;;;;495320;240;1298;-43
2021/08/27 01:53:33;;;;;;;;;;;24.30;57.90;;;;;;495076;240;1128;-43
2021/08/27 01:55:34;;;;;;;;;;;24.30;57.90;;;;;;495536;240;1074;-43
2021/08/27 01:57:36;;;;;;;;;;;24.30;57.90;;;;;;495236;240;1196;-43
2021/08/27 01:59:37;;;;;;;;;;;24.30;57.90;;;;;;495518;240;1077;-43
2021/08/27 02:01:38;;;;;;;;;;;24.30;57.90;;;;;;495176;240;1351;-43
2021/08/27 02:03:40;;;;;;;;;;;24.30;58.00;;;;;;495209;240;1184;-43
2021/08/27 02:05:41;;;;;;;;;;;24.30;57.90;;;;;;495042;240;2198;-43
2021/08/27 02:07:42;;;;;;;;;;;24.30;57.90;;;;;;494948;240;1669;-43
2021/08/27 02:09:44;;;;;;;;;;;24.40;58.00;;;;;;495494;240;1200;-43
2021/08/27 02:11:45;;;;;;;;;;;24.30;57.90;;;;;;495025;240;1192;-43
2021/08/27 02:13:46;;;;;;;;;;;24.40;58.00;;;;;;495387;240;1542;-43
2021/08/27 02:15:47;;;;;;;;;;;24.40;57.90;;;;;;495229;240;1428;-43
2021/08/27 02:17:49;;;;;;;;;;;24.40;57.90;;;;;;495053;240;1287;-43
2021/08/27 02:19:50;;;;;;;;;;;24.30;57.90;;;;;;495230;240;1070;-43
2021/08/27 02:21:51;;;;;;;;;;;24.40;58.00;;;;;;495547;240;1355;-43
2021/08/27 02:23:53;;;;;;;;;;;24.40;58.00;;;;;;495402;240;1325;-43
2021/08/27 02:25:54;;;;;;;;;;;24.30;57.90;;;;;;495307;240;2182;-43
2021/08/27 02:27:55;;;;;;;;;;;24.40;58.00;;;;;;495024;240;1146;-43
2021/08/27 02:29:57;;;;;;;;;;;24.40;58.00;;;;;;495506;240;1079;-43
2021/08/27 02:31:59;;;;;;;;;;;24.40;58.00;;;;;;495002;240;1318;-43
2021/08/27 02:33:59;;;;;;;;;;;24.40;57.90;;;;;;495074;240;2371;-43
2021/08/27 02:36:01;;;;;;;;;;;24.40;57.90;;;;;;495049;240;1161;-43
2021/08/27 02:38:02;;;;;;;;;;;24.40;58.00;;;;;;495352;240;1054;-43
2021/08/27 02:40:03;;;;;;;;;;;24.40;58.00;;;;;;495197;240;1172;-43
2021/08/27 02:42:05;;;;;;;;;;;24.40;57.90;;;;;;495010;240;1208;-43
2021/08/27 02:44:06;;;;;;;;;;;24.40;58.00;;;;;;495227;240;2159;-43
2021/08/27 02:46:07;;;;;;;;;;;24.40;57.90;;;;;;495058;240;1281;-43
2021/08/27 02:48:09;;;;;;;;;;;24.40;58.00;;;;;;495004;240;1208;-43
2021/08/27 02:50:12;;;;;;;;;;;24.40;58.00;;;;;;495455;240;1095;-43
2021/08/27 02:52:11;;;;;;;;;;;24.40;58.00;;;;;;494950;241;1927;-43
2021/08/27 02:54:14;;;;;;;;;;;24.40;58.00;;;;;;495345;240;1185;-43
2021/08/27 02:56:14;;;;;;;;;;;24.40;57.90;;;;;;495064;239;2450;-43
2021/08/27 02:58:16;;;;;;;;;;;24.40;57.90;;;;;;495002;240;1294;-43
2021/08/27 03:00:17;;;;;;;;;;;24.40;57.90;;;;;;495024;240;1087;-43
2021/08/27 03:02:18;;;;;;;;;;;24.40;57.90;;;;;;494947;240;1198;-43
2021/08/27 03:04:20;;;;;;;;;;;24.40;57.90;;;;;;495110;240;2150;-43
2021/08/27 03:06:21;;;;;;;;;;;24.40;57.90;;;;;;495191;239;1369;-43
2021/08/27 03:08:22;;;;;;;;;;;24.40;57.90;;;;;;495024;240;1379;-43
2021/08/27 03:10:24;;;;;;;;;;;24.40;57.90;;;;;;495104;240;1157;-43
2021/08/27 03:12:26;;;;;;;;;;;24.40;57.90;;;;;;495161;240;1177;-43
2021/08/27 03:14:26;;;;;;;;;;;24.40;57.90;;;;;;495199;240;2019;-43
2021/08/27 03:16:28;;;;;;;;;;;24.40;57.90;;;;;;495368;240;1301;-43
2021/08/27 03:18:29;;;;;;;;;;;24.40;57.80;;;;;;495010;240;1754;-43
2021/08/27 03:20:30;;;;;;;;;;;24.40;57.80;;;;;;495006;240;1683;-43
2021/08/27 03:22:32;;;;;;;;;;;24.40;57.90;;;;;;495192;240;1281;-43
2021/08/27 03:24:33;;;;;;;;;;;24.50;57.90;;;;;;495255;240;2186;-43
2021/08/27 03:26:35;;;;;;;;;;;24.40;57.90;;;;;;495263;239;1420;-43
2021/08/27 03:28:36;;;;;;;;;;;24.50;57.90;;;;;;495260;240;1248;-43
2021/08/27 03:30:37;;;;;;;;;;;24.40;57.90;;;;;;495127;240;1155;-43
2021/08/27 03:32:39;;;;;;;;;;;24.40;57.90;;;;;;495108;240;1319;-43
2021/08/27 03:34:40;;;;;;;;;;;24.40;57.90;;;;;;495107;240;1140;-43
2021/08/27 03:36:41;;;;;;;;;;;24.40;57.90;;;;;;494908;240;1217;-43
2021/08/27 03:38:43;;;;;;;;;;;24.40;57.80;;;;;;495286;240;1257;-43
2021/08/27 03:40:44;;;;;;;;;;;24.50;57.90;;;;;;495282;240;1487;-43
2021/08/27 03:42:45;;;;;;;;;;;24.50;57.90;;;;;;495000;240;1529;-43
2021/08/27 03:44:47;;;;;;;;;;;24.50;57.90;;;;;;495438;240;2150;-43
2021/08/27 03:46:48;;;;;;;;;;;24.50;57.80;;;;;;495011;240;1224;-43
2021/08/27 03:48:49;;;;;;;;;;;24.50;57.80;;;;;;495047;240;1094;-43
2021/08/27 03:50:51;;;;;;;;;;;24.50;57.80;;;;;;495008;240;1194;-43
2021/08/27 03:52:52;;;;;;;;;;;24.50;57.80;;;;;;495207;240;1537;-43
2021/08/27 03:54:53;;;;;;;;;;;24.50;57.80;;;;;;495536;240;1155;-43
2021/08/27 03:56:54;;;;;;;;;;;24.50;57.80;;;;;;495071;240;1303;-43
2021/08/27 03:58:56;;;;;;;;;;;24.50;57.80;;;;;;495027;240;1071;-43
2021/08/27 04:00:57;;;;;;;;;;;24.50;57.80;;;;;;495031;240;1303;-43
2021/08/27 04:02:58;;;;;;;;;;;24.50;57.80;;;;;;495443;240;1245;-43
2021/08/27 04:05:00;;;;;;;;;;;24.50;57.80;;;;;;494949;240;2162;-43
2021/08/27 04:07:01;;;;;;;;;;;24.50;57.80;;;;;;494972;240;1243;-43
2021/08/27 04:09:02;;;;;;;;;;;24.50;57.80;;;;;;495090;240;1101;-43
2021/08/27 04:11:04;;;;;;;;;;;24.50;57.80;;;;;;495008;240;1157;-43
2021/08/27 04:13:05;;;;;;;;;;;24.50;57.80;;;;;;495014;240;1284;-43
2021/08/27 04:15:06;;;;;;;;;;;24.50;57.80;;;;;;495221;240;1926;-43
2021/08/27 04:17:08;;;;;;;;;;;24.50;57.80;;;;;;495464;239;1106;-43
2021/08/27 04:19:09;;;;;;;;;;;24.50;57.80;;;;;;495381;240;1142;-43
2021/08/27 04:21:10;;;;;;;;;;;24.50;57.80;;;;;;495030;240;1185;-43
2021/08/27 04:23:12;;;;;;;;;;;24.50;57.80;;;;;;495462;240;1059;-43
2021/08/27 04:25:13;;;;;;;;;;;24.50;57.80;;;;;;495492;240;2132;-43
2021/08/27 04:27:14;;;;;;;;;;;24.50;57.80;;;;;;494855;236;1322;-43
2021/08/27 04:29:16;;;;;;;;;;;24.50;57.80;;;;;;495028;240;1041;-43
2021/08/27 04:31:17;;;;;;;;;;;24.50;57.80;;;;;;495364;240;1050;-43
2021/08/27 04:33:18;;;;;;;;;;;24.50;57.80;;;;;;495281;240;1112;-43
2021/08/27 04:35:20;;;;;;;;;;;24.50;57.80;;;;;;494928;240;1261;-43
2021/08/27 04:37:21;;;;;;;;;;;24.50;57.80;;;;;;495135;240;1390;-43
2021/08/27 04:39:22;;;;;;;;;;;24.50;57.80;;;;;;495129;240;1116;-43
2021/08/27 04:41:24;;;;;;;;;;;24.50;57.80;;;;;;494874;240;1128;-43
2021/08/27 04:43:25;;;;;;;;;;;24.50;57.80;;;;;;494928;240;1057;-43
2021/08/27 04:45:26;;;;;;;;;;;24.50;57.80;;;;;;494978;240;2198;-43
2021/08/27 04:47:27;;;;;;;;;;;24.50;57.80;;;;;;495267;240;1380;-43
2021/08/27 04:49:29;;;;;;;;;;;24.50;57.80;;;;;;495380;240;1065;-43
2021/08/27 04:51:31;;;;;;;;;;;24.50;57.80;;;;;;494964;240;1155;-43
2021/08/27 04:53:32;;;;;;;;;;;24.50;57.70;;;;;;495190;240;1083;-43
2021/08/27 04:55:33;;;;;;;;;;;24.50;57.80;;;;;;495074;240;1147;-43
2021/08/27 04:57:34;;;;;;;;;;;24.50;57.70;;;;;;495006;240;1333;-43
2021/08/27 04:59:36;;;;;;;;;;;24.50;57.70;;;;;;494955;240;1054;-43
2021/08/27 05:01:37;;;;;;;;;;;24.50;57.80;;;;;;494868;240;1276;-43
2021/08/27 05:03:38;;;;;;;;;;;24.50;57.70;;;;;;495228;240;1060;-43
2021/08/27 05:05:40;;;;;;;;;;;24.50;57.70;;;;;;494961;240;2146;-43
2021/08/27 05:07:41;;;;;;;;;;;24.50;57.70;;;;;;494904;240;1205;-43
2021/08/27 05:09:43;;;;;;;;;;;24.50;57.70;;;;;;495322;240;1175;-43
2021/08/27 05:11:44;;;;;;;;;;;24.50;57.70;;;;;;494854;240;1352;-43
2021/08/27 05:13:45;;;;;;;;;;;24.50;57.80;;;;;;495110;240;1265;-43
2021/08/27 05:15:46;;;;;;;;;;;24.50;57.70;;;;;;494905;240;1436;-43
2021/08/27 05:17:48;;;;;;;;;;;24.50;57.70;;;;;;495023;240;1276;-43
2021/08/27 05:19:49;;;;;;;;;;;24.50;57.80;;;;;;494880;240;1062;-43
2021/08/27 05:21:50;;;;;;;;;;;24.50;57.70;;;;;;494790;240;1221;-43
2021/08/27 05:23:52;;;;;;;;;;;24.50;57.70;;;;;;494818;240;1196;-43
2021/08/27 05:25:53;;;;;;;;;;;24.50;57.70;;;;;;494776;240;2187;-44
2021/08/27 05:27:54;;;;;;;;;;;24.50;57.70;;;;;;495027;240;1219;-43
2021/08/27 05:29:56;;;;;;;;;;;24.50;57.70;;;;;;494925;240;1080;-43
2021/08/27 05:31:57;;;;;;;;;;;24.50;57.70;;;;;;494698;240;1341;-43
2021/08/27 05:33:59;;;;;;;;;;;24.50;57.70;;;;;;494863;240;1340;-43
2021/08/27 05:36:00;;;;;;;;;;;24.50;57.70;;;;;;494946;240;1258;-43
2021/08/27 05:38:02;;;;;;;;;;;24.60;57.80;;;;;;494827;240;1302;-43
2021/08/27 05:40:03;;;;;;;;;;;24.60;57.70;;;;;;495060;240;1080;-43
2021/08/27 05:42:04;;;;;;;;;;;24.60;57.70;;;;;;494862;240;1290;-43
2021/08/27 05:44:05;;;;;;;;;;;24.60;57.70;;;;;;494834;240;1227;-43
2021/08/27 05:46:07;;;;;;;;;;;24.60;57.80;;;;;;494803;240;2153;-44
2021/08/27 05:48:08;;;;;;;;;;;24.50;57.70;;;;;;495051;240;1242;-43
2021/08/27 05:50:09;;;;;;;;;;;24.60;57.80;;;;;;494962;241;1236;-43
2021/08/27 05:52:11;;;;;;;;;;;24.60;57.70;;;;;;494695;240;1458;-43
2021/08/27 05:54:12;;;;;;;;;;;24.60;57.70;;;;;;494750;240;1178;-43
2021/08/27 05:56:14;;;;;;;;;;;24.60;57.70;;;;;;494721;240;1242;-43
2021/08/27 05:58:15;;;;;;;;;;;24.60;57.70;;;;;;494740;240;1167;-43
2021/08/27 06:00:16;;;;;;;;;;;24.60;57.70;;;;;;494715;240;1184;-43
2021/08/27 06:02:18;;;;;;;;;;;24.60;57.70;;;;;;494562;240;1209;-43
2021/08/27 06:04:19;;;;;;;;;;;24.60;57.70;;;;;;494720;241;1613;-43
2021/08/27 06:06:21;;;;;;;;;;;24.60;57.70;;;;;;494698;240;2131;-43
2021/08/27 06:08:22;;;;;;;;;;;24.60;57.70;;;;;;494469;240;1100;-43
2021/08/27 06:10:23;;;;;;;;;;;24.60;57.70;;;;;;494444;240;1081;-43
2021/08/27 06:12:24;;;;;;;;;;;24.60;57.70;;;;;;494380;240;1341;-43
2021/08/27 06:14:26;;;;;;;;;;;24.60;57.70;;;;;;494295;240;1097;-43
2021/08/27 06:16:27;;;;;;;;;;;24.60;57.70;;;;;;494318;240;1196;-43
2021/08/27 06:18:28;;;;;;;;;;;24.60;57.80;;;;;;494333;240;1269;-43
2021/08/27 06:20:32;;;;;;;;;;;24.60;57.80;;;;;;494295;240;1173;-43
2021/08/27 06:22:31;;;;;;;;;;;24.60;57.70;;;;;;494673;241;2017;-43
2021/08/27 06:24:33;;;;;;;;;;;24.60;57.80;;;;;;495194;240;849;-43
2021/08/27 06:26:34;;;;;;;;;;;24.60;57.70;;;;;;495121;240;2198;-43
2021/08/27 06:28:35;;;;;;;;;;;24.60;57.70;;;;;;495210;240;867;-43
2021/08/27 06:30:37;;;;;;;;;;;24.60;57.70;;;;;;494751;240;1116;-43
2021/08/27 06:32:38;;;;;;;;;;;24.60;57.70;;;;;;494746;240;1170;-43
2021/08/27 06:34:39;;;;;;;;;;;24.60;57.70;;;;;;494790;240;856;-43
2021/08/27 06:36:41;;;;;;;;;;;24.60;57.80;;;;;;494714;240;1227;-43
2021/08/27 06:38:42;;;;;;;;;;;24.60;57.70;;;;;;495213;240;859;-43
2021/08/27 06:40:43;;;;;;;;;;;24.60;57.80;;;;;;494788;240;1257;-43
2021/08/27 06:42:45;;;;;;;;;;;24.60;57.70;;;;;;495203;240;1048;-43
2021/08/27 06:44:46;;;;;;;;;;;24.60;57.80;;;;;;495162;240;923;-43
2021/08/27 06:46:48;;;;;;;;;;;24.60;57.80;;;;;;494593;240;2175;-43
2021/08/27 06:48:49;;;;;;;;;;;24.60;57.80;;;;;;495190;240;838;-43
2021/08/27 06:50:50;;;;;;;;;;;24.60;57.70;;;;;;495086;240;2304;-43
2021/08/27 06:52:52;;;;;;;;;;;24.60;57.70;;;;;;494708;240;1052;-43
2021/08/27 06:54:53;;;;;;;;;;;24.60;57.80;;;;;;495132;240;826;-43
2021/08/27 06:56:54;;;;;;;;;;;24.60;57.80;;;;;;494780;240;1127;-43
2021/08/27 06:58:56;;;;;;;;;;;24.60;57.80;;;;;;494699;240;832;-43
2021/08/27 07:00:57;;;;;;;;;;;24.60;57.70;;;;;;495114;240;1134;-43
2021/08/27 07:02:58;;;;;;;;;;;24.60;57.70;;;;;;494661;240;1073;-43
2021/08/27 07:05:00;;;;;;;;;;;24.60;57.70;;;;;;495106;240;844;-43
2021/08/27 07:07:01;;;;;;;;;;;24.60;57.70;;;;;;494856;240;2187;-43
2021/08/27 07:09:02;;;;;;;;;;;24.60;57.70;;;;;;495081;240;1152;-43
2021/08/27 07:11:04;;;;;;;;;;;24.60;57.70;;;;;;495024;240;1094;-43
2021/08/27 07:13:05;;;;;;;;;;;24.60;57.70;;;;;;494603;240;1118;-43
2021/08/27 07:15:06;;;;;;;;;;;24.60;57.70;;;;;;495132;240;907;-43
2021/08/27 07:17:08;;;;;;;;;;;24.60;57.70;;;;;;494832;240;1091;-43
2021/08/27 07:19:09;;;;;;;;;;;24.60;57.70;;;;;;495160;240;837;-43
2021/08/27 07:21:10;;;;;;;;;;;24.60;57.70;;;;;;494607;240;1860;-43
2021/08/27 07:23:13;;;;;;;;;;;24.60;57.60;;;;;;494825;240;1057;-43
2021/08/27 07:25:13;;;;;;;;;;;24.60;57.60;;;;;;495064;241;2061;-43
2021/08/27 07:27:14;;;;;;;;;;;24.60;57.60;;;;;;494517;240;2186;-43
2021/08/27 07:29:16;;;;;;;;;;;24.60;57.60;;;;;;495139;240;1133;-43
2021/08/27 07:31:17;;;;;;;;;;;24.70;57.70;;;;;;494573;240;1165;-43
2021/08/27 07:33:18;;;;;;;;;;;24.60;57.60;;;;;;495169;240;1030;-43
2021/08/27 07:35:20;;;;;;;;;;;24.60;57.70;;;;;;494662;240;859;-44
2021/08/27 07:37:21;;;;;;;;;;;24.60;57.60;;;;;;494676;240;1064;-43
2021/08/27 07:39:22;;;;;;;;;;;24.70;57.70;;;;;;495064;240;822;-43
2021/08/27 07:41:24;;;;;;;;;;;24.60;57.60;;;;;;494924;240;1154;-43
2021/08/27 07:43:25;;;;;;;;;;;24.60;57.60;;;;;;494398;240;1109;-43
2021/08/27 07:45:26;;;;;;;;;;;24.60;57.60;;;;;;493799;240;1176;-43
2021/08/27 07:47:28;;;;;;;;;;;24.70;57.80;;;;;;493963;240;2190;-43
2021/08/27 07:49:29;;;;;;;;;;;24.60;57.70;;;;;;494013;240;1109;-43
2021/08/27 07:51:30;;;;;;;;;;;24.60;57.60;;;;;;493894;240;1230;-43
2021/08/27 07:53:31;;;;;;;;;;;24.60;57.60;;;;;;493881;240;1208;-44
2021/08/27 07:55:33;;;;;;;;;;;24.70;57.70;;;;;;493952;240;1407;-43
2021/08/27 07:57:34;;;;;;;;;;;24.60;57.70;;;;;;493907;240;1263;-43
2021/08/27 07:59:35;;;;;;;;;;;24.60;57.70;;;;;;494074;240;1069;-43
2021/08/27 08:01:37;;;;;;;;;;;24.60;57.70;;;;;;494071;240;1416;-43
2021/08/27 08:03:38;;;;;;;;;;;24.60;57.70;;;;;;494755;240;892;-43
2021/08/27 08:05:39;;;;;;;;;;;24.70;57.70;;;;;;494365;240;1492;-43
2021/08/27 08:07:41;;;;;;;;;;;24.60;57.70;;;;;;494254;240;2190;-43
2021/08/27 08:09:42;;;;;;;;;;;24.70;57.70;;;;;;494863;240;611;-43
2021/08/27 08:11:43;;;;;;;;;;;24.70;57.70;;;;;;494733;240;1173;-43
2021/08/27 08:13:45;;;;;;;;;;;24.70;57.70;;;;;;494837;240;805;-43
2021/08/27 08:15:46;;;;;;;;;;;24.60;57.60;;;;;;494347;240;1356;-43
2021/08/27 08:17:47;;;;;;;;;;;24.60;57.60;;;;;;494440;240;784;-43
2021/08/27 08:19:49;;;;;;;;;;;24.70;57.70;;;;;;494939;240;781;-43
2021/08/27 08:21:50;;;;;;;;;;;24.60;57.60;;;;;;494394;237;1263;-42
2021/08/27 08:23:51;;;;;;;;;;;24.60;57.60;;;;;;494607;240;1070;-43
2021/08/27 08:25:53;;;;;;;;;;;24.60;57.60;;;;;;494317;240;1531;-43
2021/08/27 08:27:54;;;;;;;;;;;24.60;57.70;;;;;;494823;240;2174;-43
2021/08/27 08:29:55;;;;;;;;;;;24.70;57.70;;;;;;494339;240;754;-43
2021/08/27 08:31:56;;;;;;;;;;;24.60;57.70;;;;;;494755;240;1195;-43
2021/08/27 08:33:58;;;;;;;;;;;24.60;57.70;;;;;;494830;240;796;-43
2021/08/27 08:35:59;;;;;;;;;;;24.70;57.70;;;;;;494324;240;1499;-43
2021/08/27 08:38:00;;;;;;;;;;;24.70;57.70;;;;;;494684;240;1180;-43
2021/08/27 08:40:02;;;;;;;;;;;24.70;57.70;;;;;;494693;240;788;-43
2021/08/27 08:42:03;;;;;;;;;;;24.70;57.70;;;;;;494595;240;1175;-43
2021/08/27 08:44:04;;;;;;;;;;;24.70;57.60;;;;;;494736;240;1036;-43
2021/08/27 08:46:06;;;;;;;;;;;24.70;57.70;;;;;;494710;240;2186;-43
2021/08/27 08:48:07;;;;;;;;;;;24.70;57.70;;;;;;494789;240;1266;-43
2021/08/27 08:50:08;;;;;;;;;;;24.60;57.70;;;;;;495004;240;729;-43
2021/08/27 08:52:10;;;;;;;;;;;24.60;57.70;;;;;;494588;240;1358;-43
2021/08/27 08:54:13;;;;;;;;;;;24.60;57.70;;;;;;494429;240;1153;-43
2021/08/27 08:56:13;;;;;;;;;;;24.60;57.70;;;;;;494630;240;1996;-43
2021/08/27 08:58:15;;;;;;;;;;;24.60;57.70;;;;;;494737;240;1421;-43
2021/08/27 09:00:16;;;;;;;;;;;24.60;57.70;;;;;;494939;240;836;-43
2021/08/27 09:02:19;;;;;;;;;;;24.60;57.70;;;;;;494873;240;1045;-43
2021/08/27 09:04:19;;;;;;;;;;;24.70;57.70;;;;;;494822;241;2088;-43
2021/08/27 09:06:20;;;;;;;;;;;24.70;57.70;;;;;;494738;240;2209;-43
2021/08/27 09:08:21;;;;;;;;;;;24.70;57.70;;;;;;494767;240;1133;-43
2021/08/27 09:10:23;;;;;;;;;;;24.70;57.70;;;;;;494881;240;679;-43
2021/08/27 09:12:24;;;;;;;;;;;24.70;57.70;;;;;;494282;240;1284;-43
2021/08/27 09:14:25;;;;;;;;;;;24.70;57.70;;;;;;494906;240;822;-43
2021/08/27 09:16:27;;;;;;;;;;;24.70;57.70;;;;;;494519;240;1237;-43
2021/08/27 09:18:28;;;;;;;;;;;24.70;57.70;;;;;;494342;240;669;-43
2021/08/27 09:20:29;;;;;;;;;;;24.70;57.70;;;;;;494882;240;813;-43
2021/08/27 09:22:31;;;;;;;;;;;24.70;57.70;;;;;;494762;240;1056;-43
2021/08/27 09:24:32;;;;;;;;;;;24.70;57.60;;;;;;494313;240;1180;-43
2021/08/27 09:26:33;;;;;;;;;;;24.70;57.70;;;;;;494501;240;2198;-43
2021/08/27 09:28:36;;;;;;;;;;;24.70;57.70;;;;;;493347;240;995;-43
2021/08/27 09:30:36;;;;;;;;;;;24.70;57.70;;;;;;494800;240;1690;-43
2021/08/27 09:32:37;;;;;;;;;;;24.70;57.70;;;;;;493400;240;1316;-43
2021/08/27 09:34:39;;;;;;;;;;;24.70;57.70;;;;;;494924;240;737;-43
2021/08/27 09:36:40;;;;;;;;;;;24.70;57.70;;;;;;494685;240;1164;-43
2021/08/27 09:38:41;;;;;;;;;;;24.70;57.70;;;;;;494531;240;1019;-42
2021/08/27 09:40:48;;;;;;;;;;;24.70;57.70;;;;;;494365;240;1609;-43
2021/08/27 09:42:45;;;;;;;;;;;24.70;57.60;;;;;;494539;241;2026;-43
2021/08/27 09:44:46;;;;;;;;;;;24.70;57.60;;;;;;494439;240;996;-43
2021/08/27 09:46:47;;;;;;;;;;;24.80;57.70;;;;;;494508;240;2267;-43
2021/08/27 09:48:48;;;;;;;;;;;24.70;57.60;;;;;;494409;240;1330;-43
2021/08/27 09:50:50;;;;;;;;;;;24.70;57.60;;;;;;494444;240;1533;-43
2021/08/27 09:52:51;;;;;;;;;;;24.80;57.60;;;;;;494858;240;1072;-43
2021/08/27 09:54:52;;;;;;;;;;;24.80;57.60;;;;;;494403;240;1081;-43
2021/08/27 09:56:54;;;;;;;;;;;24.70;57.60;;;;;;494727;241;1168;-43
2021/08/27 09:58:55;;;;;;;;;;;24.80;57.70;;;;;;494308;240;2269;-43
2021/08/27 10:00:56;;;;;;;;;;;24.70;57.60;;;;;;494244;240;1471;-43
2021/08/27 10:03:02;;;;;;;;;;;24.80;57.60;;;;;;494297;240;1340;-43
2021/08/27 10:04:59;;;;;;;;;;;24.70;57.60;;;;;;494256;241;2450;-43
2021/08/27 10:07:00;;;;;;;;;;;24.80;57.60;;;;;;494406;240;2187;-43
2021/08/27 10:09:02;;;;;;;;;;;24.70;57.50;;;;;;494562;240;1117;-43
2021/08/27 10:11:03;;;;;;;;;;;24.80;57.60;;;;;;494452;240;1615;-43
2021/08/27 10:13:04;;;;;;;;;;;24.80;57.50;;;;;;494988;240;1034;-43
2021/08/27 10:15:06;;;;;;;;;;;24.80;57.60;;;;;;494896;240;754;-43
2021/08/27 10:17:07;;;;;;;;;;;24.80;57.50;;;;;;494508;240;1098;-43
2021/08/27 10:19:08;;;;;;;;;;;24.80;57.60;;;;;;494781;240;745;-43
2021/08/27 10:21:10;;;;;;;;;;;24.80;57.50;;;;;;494632;240;1346;-40
2021/08/27 10:23:11;;;;;;;;;;;24.70;58.10;;;;;;494269;240;1398;-43
2021/08/27 10:25:12;;;;;;;;;;;24.70;58.50;;;;;;494629;240;1093;-43
2021/08/27 10:27:14;;;;;;;;;;;24.40;59.20;;;;;;494433;240;2198;-43
2021/08/27 10:29:15;;;;;;;;;;;24.00;60.00;;;;;;494826;240;1271;-42
2021/08/27 10:31:16;;;;;;;;;;;23.70;61.10;;;;;;494258;240;1202;-42
2021/08/27 10:33:17;;;;;;;;;;;23.80;60.80;;;;;;494261;240;1335;-43
2021/08/27 10:35:19;;;;;;;;;;;23.90;60.50;;;;;;494205;240;1226;-43
2021/08/27 10:37:20;;;;;;;;;;;24.00;60.10;;;;;;494203;240;1237;-43
2021/08/27 10:39:21;;;;;;;;;;;24.00;59.90;;;;;;494249;237;1298;-43
2021/08/27 10:41:27;;;;;;;;;;;24.00;59.70;;;;;;494150;240;1131;-43
2021/08/27 10:43:25;;;;;;;;;;;24.00;59.60;;;;;;493988;241;1752;-43
2021/08/27 10:45:26;;;;;;;;;;;24.00;59.50;;;;;;494301;240;1175;-43
2021/08/27 10:47:28;;;;;;;;;;;24.00;59.40;;;;;;494099;240;2189;-43
2021/08/27 10:49:29;;;;;;;;;;;24.00;59.40;;;;;;494332;240;1080;-43
2021/08/27 10:51:30;;;;;;;;;;;24.00;59.40;;;;;;494334;240;1175;-42
2021/08/27 10:53:32;;;;;;;;;;;24.00;59.40;;;;;;494148;240;1056;-43
2021/08/27 10:55:33;;;;;;;;;;;24.00;59.50;;;;;;494245;240;1114;-43
2021/08/27 10:57:34;;;;;;;;;;;24.00;59.40;;;;;;494226;240;1421;-43
2021/08/27 10:59:37;;;;;;;;;;;24.00;59.50;;;;;;494236;240;1060;-43
2021/08/27 11:01:37;;;;;;;;;;;23.90;59.50;;;;;;494199;240;2195;-43
2021/08/27 11:03:38;;;;;;;;;;;23.90;59.40;;;;;;494515;240;1067;-43
2021/08/27 11:05:40;;;;;;;;;;;23.90;59.40;;;;;;494893;240;1538;-43
2021/08/27 11:07:41;;;;;;;;;;;23.80;59.40;;;;;;494876;240;2190;-43
2021/08/27 11:09:42;;;;;;;;;;;23.80;59.40;;;;;;494308;240;1129;-43
2021/08/27 11:11:44;;;;;;;;;;;23.80;59.40;;;;;;494196;240;1316;-43
2021/08/27 11:13:45;;;;;;;;;;;23.80;59.40;;;;;;494612;240;868;-42
2021/08/27 11:15:46;;;;;;;;;;;23.80;59.50;;;;;;495000;240;1440;-43
2021/08/27 11:17:48;;;;;;;;;;;23.80;59.40;;;;;;494962;240;1158;-42
2021/08/27 11:19:49;;;;;;;;;;;23.70;59.50;;;;;;494988;240;767;-43
2021/08/27 11:21:53;;;;;;;;;;;23.80;59.40;;;;;;494852;240;1093;-43
2021/08/27 11:23:51;;;;;;;;;;;23.70;59.40;;;;;;494186;241;2036;-43
2021/08/27 11:25:53;;;;;;;;;;;23.80;59.40;;;;;;494584;240;1568;-42
2021/08/27 11:27:54;;;;;;;;;;;23.70;59.30;;;;;;494254;240;2182;-43
2021/08/27 11:29:59;;;;;;;;;;;23.70;59.30;;;;;;494435;240;792;-43
2021/08/27 11:31:57;;;;;;;;;;;23.70;59.20;;;;;;494209;241;2600;-43
2021/08/27 11:34:00;;;;;;;;;;;23.70;59.30;;;;;;494448;240;1094;-42
2021/08/27 11:35:59;;;;;;;;;;;23.70;59.40;;;;;;494265;241;1385;-43
2021/08/27 11:38:04;;;;;;;;;;;23.70;59.40;;;;;;494816;240;1060;-43
2021/08/27 11:40:02;;;;;;;;;;;23.60;59.30;;;;;;494295;241;2300;-43
2021/08/27 11:42:03;;;;;;;;;;;23.60;59.30;;;;;;494277;240;1230;-43
2021/08/27 11:44:05;;;;;;;;;;;23.60;59.30;;;;;;494757;240;779;-43
2021/08/27 11:46:06;;;;;;;;;;;23.60;59.30;;;;;;494271;240;1521;-43
2021/08/27 11:48:07;;;;;;;;;;;23.60;59.30;;;;;;494742;240;2189;-42
2021/08/27 11:50:09;;;;;;;;;;;23.60;59.30;;;;;;495027;240;686;-43
2021/08/27 11:52:10;;;;;;;;;;;23.60;59.30;;;;;;494503;240;1070;-43
2021/08/27 11:54:12;;;;;;;;;;;23.60;59.30;;;;;;494990;240;797;-43
2021/08/27 11:56:15;;;;;;;;;;;23.60;59.30;;;;;;494658;236;1275;-43